Time;durP1;ratioP1;P1;durP2;ratioP2;P2;SDS_P1;SDS_P2;PMS_P1;PMS_P2;Temp;Humidity;BMP_temperature;BMP_pressure;BME280_temperature;BME280_humidity;BME280_pressure;Samples;Min_cycle;Max_cycle;Signal;HPM_P1;HPM_P2
2023/07/25 00:01:31;;;;;;;27.27;15.60;;;;;;;-144.30;52.36;83778.63;5029380;28;20557;-53
2023/07/25 00:03:58;;;;;;;24.92;15.73;;;;;;;-144.30;52.50;83728.97;5029085;28;20233;-52
2023/07/25 00:06:25;;;;;;;21.58;14.48;;;;;;;-144.30;52.53;83770.69;5029178;28;20580;-53
2023/07/25 00:08:52;;;;;;;20.20;13.27;;;;;;;-144.30;51.59;83770.69;5029415;28;20195;-47
2023/07/25 00:11:19;;;;;;;24.85;14.70;;;;;;;-144.30;52.60;83738.88;5029334;28;20202;-46
2023/07/25 00:13:46;;;;;;;22.77;14.57;;;;;;;-144.30;53.34;83770.69;5028278;28;20205;-48
2023/07/25 00:16:14;;;;;;;20.95;14.07;;;;;;;-144.30;53.62;83786.56;5029925;28;20677;-52
2023/07/25 00:18:41;;;;;;;28.08;16.88;;;;;;;-144.30;54.02;83794.53;5032948;28;20585;-46
2023/07/25 00:21:08;;;;;;;19.88;13.68;;;;;;;-144.30;53.51;83814.41;5032860;28;20309;-55
2023/07/25 00:23:35;;;;;;;21.73;12.75;;;;;;;-144.30;52.85;83824.31;5032747;28;20227;-47
2023/07/25 00:26:02;;;;;;;20.00;13.13;;;;;;;-144.30;52.25;83806.44;5033013;28;20197;-46
2023/07/25 00:28:28;;;;;;;15.70;12.40;;;;;;;-144.30;52.06;83842.22;5032850;28;20620;-47
2023/07/25 00:30:55;;;;;;;16.60;11.98;;;;;;;-144.30;51.92;83776.66;5032782;28;20197;-47
2023/07/25 00:33:24;;;;;;;14.93;11.27;;;;;;;-144.30;52.14;83800.50;5032586;28;20189;-52
2023/07/25 00:35:54;;;;;;;17.40;11.63;;;;;;;-144.30;52.34;83820.34;5033041;28;20586;-52
2023/07/25 00:38:20;;;;;;;14.10;11.32;;;;;;;-144.30;52.61;83830.28;5032824;28;20292;-53
2023/07/25 00:40:47;;;;;;;14.55;11.10;;;;;;;-144.30;52.70;83850.16;5032799;28;20197;-48
2023/07/25 00:43:14;;;;;;;19.02;12.40;;;;;;;-144.30;52.97;83870.03;5032552;28;20709;-47
2023/07/25 00:45:41;;;;;;;20.02;11.90;;;;;;;-144.30;53.08;83846.19;5032350;28;20201;-52
2023/07/25 00:48:08;;;;;;;16.02;11.18;;;;;;;-144.30;52.65;83836.25;5032526;28;20194;-46
2023/07/25 00:50:36;;;;;;;18.25;12.02;;;;;;;-144.30;52.69;83804.47;5032664;28;20689;-46
2023/07/25 00:53:05;;;;;;;17.15;11.90;;;;;;;-144.30;52.35;83856.13;5032509;28;20581;-53
2023/07/25 00:55:32;;;;;;;19.25;12.52;;;;;;;-144.30;52.62;83858.09;5032393;28;20295;-53
2023/07/25 00:57:59;;;;;;;19.25;12.05;;;;;;;-144.30;52.61;83838.25;5032584;28;20657;-51
2023/07/25 01:00:26;;;;;;;17.27;12.82;;;;;;;-144.30;52.90;83832.28;5032029;28;20210;-53
2023/07/25 01:02:54;;;;;;;16.00;13.00;;;;;;;-144.30;53.30;83883.94;5032149;28;20225;-52
2023/07/25 01:05:21;;;;;;;15.45;11.80;;;;;;;-144.30;53.61;83909.78;5032069;28;20235;-52
2023/07/25 01:07:49;;;;;;;16.08;12.82;;;;;;;-144.30;53.90;83879.97;5032420;28;20692;-53
2023/07/25 01:10:16;;;;;;;20.50;13.45;;;;;;;-144.30;54.21;83874.00;5032213;28;20199;-46
2023/07/25 01:12:43;;;;;;;18.83;12.50;;;;;;;-144.30;54.58;83911.75;5032004;28;20194;-53
2023/07/25 01:15:10;;;;;;;19.13;11.80;;;;;;;-144.30;54.96;83917.72;5032040;28;20219;-52
2023/07/25 01:17:37;;;;;;;16.15;13.45;;;;;;;-144.30;54.67;83949.50;5032072;28;20197;-53
2023/07/25 01:20:07;;;;;;;15.93;12.40;;;;;;;-144.30;54.81;83965.41;5032022;28;20201;-48
2023/07/25 01:22:37;;;;;;;21.40;12.13;;;;;;;-144.30;54.96;83939.59;5031690;28;20217;-53
2023/07/25 01:25:09;;;;;;;17.50;11.70;;;;;;;-144.30;55.06;83937.59;5031974;28;20657;-53
2023/07/25 01:27:36;;;;;;;18.30;12.95;;;;;;;-144.30;55.03;84132.34;5031403;28;20673;-48
2023/07/25 01:30:02;;;;;;;18.23;13.00;;;;;;;-144.30;55.30;83925.66;5031980;28;20262;-46
2023/07/25 01:32:30;;;;;;;20.05;12.40;;;;;;;-144.30;55.20;83967.41;5031662;28;20291;-53
2023/07/25 01:34:57;;;;;;;15.73;11.52;;;;;;;-144.30;55.29;83913.75;5031786;28;20200;-47
2023/07/25 01:37:24;;;;;;;14.05;11.52;;;;;;;-144.30;55.42;83937.59;5031689;28;20197;-48
2023/07/25 01:39:51;;;;;;;17.27;11.75;;;;;;;-144.30;55.39;83897.84;5031560;28;20205;-47
2023/07/25 01:42:19;;;;;;;14.63;10.90;;;;;;;-144.30;55.30;83925.66;5031763;28;20229;-53
2023/07/25 01:44:46;;;;;;;20.00;12.27;;;;;;;-144.30;55.47;83876.00;5031485;28;20204;-46
2023/07/25 01:47:13;;;;;;;11.13;9.95;;;;;;;-144.30;55.39;83929.66;5031461;28;20203;-53
2023/07/25 01:49:39;;;;;;;11.07;9.82;;;;;;;-144.30;55.67;83846.19;5031268;28;20201;-53
2023/07/25 01:52:07;;;;;;;17.90;10.50;;;;;;;-144.30;55.57;83842.22;5031548;28;20201;-53
2023/07/25 01:54:34;;;;;;;14.93;10.10;;;;;;;-144.30;55.82;83862.09;5031135;28;20197;-47
2023/07/25 01:57:01;;;;;;;13.88;10.40;;;;;;;-144.30;55.83;83866.06;5031219;28;20201;-52
2023/07/25 01:59:29;;;;;;;11.80;9.60;;;;;;;-144.30;56.13;83917.72;5031036;28;20193;-48
2023/07/25 02:01:56;;;;;;;14.95;9.57;;;;;;;-144.30;56.74;83897.84;5030969;28;20228;-52
2023/07/25 02:04:23;;;;;;;10.20;9.10;;;;;;;-144.30;56.97;83927.66;5030932;28;20233;-53
2023/07/25 02:06:50;;;;;;;15.15;9.95;;;;;;;-144.30;57.25;83923.69;5030945;28;20206;-46
2023/07/25 02:09:17;;;;;;;11.77;9.40;;;;;;;-144.30;57.87;83949.50;5031212;28;20197;-53
2023/07/25 02:11:44;;;;;;;12.95;9.43;;;;;;;-144.30;58.31;83929.66;5030963;28;20208;-46
2023/07/25 02:14:11;;;;;;;11.05;9.77;;;;;;;-144.30;58.44;83971.38;5030967;28;20193;-48
2023/07/25 02:16:40;;;;;;;10.95;9.68;;;;;;;-144.30;58.76;83959.44;5030725;28;20202;-52
2023/07/25 02:19:07;;;;;;;14.23;9.43;;;;;;;-144.30;58.90;83943.56;5030824;28;20259;-53
2023/07/25 02:21:34;;;;;;;11.77;9.88;;;;;;;-144.30;58.80;83965.41;5030560;28;20599;-47
2023/07/25 02:24:01;;;;;;;13.82;9.75;;;;;;;-144.30;58.85;83977.34;5030709;28;20233;-47
2023/07/25 02:26:28;;;;;;;12.38;9.13;;;;;;;-144.30;58.97;83973.38;5030622;28;20208;-46
2023/07/25 02:28:55;;;;;;;10.95;9.75;;;;;;;-144.30;58.95;83989.25;5030866;28;20197;-48
2023/07/25 02:31:22;;;;;;;10.18;9.10;;;;;;;-144.30;59.06;83969.38;5030464;28;20208;-54
2023/07/25 02:33:50;;;;;;;11.63;8.80;;;;;;;-144.30;59.20;83997.22;5030569;28;20197;-46
2023/07/25 02:36:17;;;;;;;14.30;9.40;;;;;;;-144.30;59.49;83959.44;5030402;28;20194;-52
2023/07/25 02:38:44;;;;;;;10.07;8.75;;;;;;;-144.30;59.44;84001.19;5029939;28;20288;-47
2023/07/25 02:41:11;;;;;;;15.80;9.50;;;;;;;-144.30;59.75;83973.38;5030380;28;20208;-52
2023/07/25 02:43:37;;;;;;;14.02;9.05;;;;;;;-144.30;59.75;83989.25;5030326;28;20229;-53
2023/07/25 02:46:04;;;;;;;13.45;9.48;;;;;;;-144.30;59.88;83981.31;5030347;28;20202;-49
2023/07/25 02:48:31;;;;;;;15.35;9.07;;;;;;;-144.30;60.24;83941.56;5030454;28;20588;-54
2023/07/25 02:50:59;;;;;;;15.27;9.35;;;;;;;-144.30;60.58;83969.38;5030406;28;20219;-53
2023/07/25 02:53:26;;;;;;;10.13;9.02;;;;;;;-144.30;60.99;83987.28;5030556;28;20788;-53
2023/07/25 02:55:54;;;;;;;13.02;9.35;;;;;;;-144.30;61.59;83979.31;5030224;28;20288;-52
2023/07/25 02:58:20;;;;;;;12.77;9.18;;;;;;;-144.30;61.74;83981.31;5030176;28;20201;-48
2023/07/25 03:00:48;;;;;;;11.48;8.60;;;;;;;-144.30;61.77;83987.28;5030256;28;20398;-52
2023/07/25 03:03:15;;;;;;;13.85;9.68;;;;;;;-144.30;62.05;84062.78;5029884;28;20272;-49
2023/07/25 03:05:42;;;;;;;14.05;10.18;;;;;;;-144.30;62.23;84032.97;5029943;28;20209;-47
2023/07/25 03:08:10;;;;;;;13.60;10.38;;;;;;;-144.30;62.25;84050.84;5030307;28;20579;-52
2023/07/25 03:10:37;;;;;;;14.18;10.90;;;;;;;-144.30;61.75;84048.88;5028798;28;20592;-46
2023/07/25 03:13:04;;;;;;;14.10;10.15;;;;;;;-144.30;61.08;84005.16;5028432;28;20220;-52
2023/07/25 03:15:31;;;;;;;14.15;10.27;;;;;;;-144.30;60.83;84019.06;5029922;28;20201;-46
2023/07/25 03:17:58;;;;;;;13.63;10.00;;;;;;;-144.30;60.69;84054.84;5029603;28;20194;-53
2023/07/25 03:20:25;;;;;;;14.77;10.27;;;;;;;-144.30;60.41;84029.00;5029658;28;20197;-47
2023/07/25 03:22:51;;;;;;;17.73;11.23;;;;;;;-144.30;60.60;84052.84;5029899;28;20231;-52
2023/07/25 03:25:20;;;;;;;14.95;11.00;;;;;;;-144.30;60.66;84058.81;5029756;28;20193;-52
2023/07/25 03:27:47;;;;;;;15.90;11.07;;;;;;;-144.30;60.37;84054.84;5041215;28;20205;-52
2023/07/25 03:30:14;;;;;;;16.88;10.35;;;;;;;-144.30;59.85;84054.84;5049600;28;20254;-48
2023/07/25 03:32:40;;;;;;;17.45;11.30;;;;;;;-144.30;59.75;84032.97;5049475;28;20200;-46
2023/07/25 03:35:08;;;;;;;22.13;12.73;;;;;;;-144.30;59.29;83991.25;5049383;28;20208;-47
2023/07/25 03:37:35;;;;;;;16.45;12.20;;;;;;;-144.30;59.09;84011.13;5049418;28;20204;-52
2023/07/25 03:40:02;;;;;;;17.15;12.43;;;;;;;-144.30;59.19;84021.06;5049968;28;20196;-53
2023/07/25 03:42:30;;;;;;;18.40;13.07;;;;;;;-144.30;60.16;84001.19;5049362;28;20203;-52
2023/07/25 03:44:57;;;;;;;15.63;13.02;;;;;;;-144.30;60.75;84098.56;5034421;28;20205;-52
2023/07/25 03:47:24;;;;;;;21.27;13.38;;;;;;;-144.30;60.70;84068.75;5026219;28;20212;-52
2023/07/25 03:49:51;;;;;;;17.52;12.77;;;;;;;-144.30;60.41;84090.59;5026375;28;20237;-45
2023/07/25 03:52:18;;;;;;;19.48;12.82;;;;;;;-144.30;60.00;84036.94;5022553;28;20624;-47
2023/07/25 03:54:45;;;;;;;16.80;13.90;;;;;;;-144.30;60.51;84058.81;5022180;28;20186;-47
2023/07/25 03:57:12;;;;;;;20.40;13.65;;;;;;;-144.30;60.43;84064.78;5019717;28;20209;-53
2023/07/25 03:59:41;;;;;;;20.23;14.45;;;;;;;-144.30;59.47;83981.31;5025782;28;20665;-48
2023/07/25 04:02:08;;;;;;;20.35;14.02;;;;;;;-144.30;57.32;83874.00;5023738;28;20228;-52
2023/07/25 04:04:34;;;;;;;22.20;13.65;;;;;;;-144.30;55.74;83770.69;5029433;28;20240;-53
2023/07/25 04:07:01;;;;;;;17.42;12.27;;;;;;;-144.30;53.56;83663.38;5033513;28;20204;-53
2023/07/25 04:09:28;;;;;;;17.75;12.52;;;;;;;-144.30;51.79;83502.44;5033132;28;20193;-46
2023/07/25 04:11:55;;;;;;;19.73;12.50;;;;;;;-144.30;50.33;83413.03;5033348;28;20205;-53
2023/07/25 04:14:22;;;;;;;19.83;13.48;;;;;;;-144.30;48.57;83335.56;5032980;28;20665;-52
2023/07/25 04:16:50;;;;;;;20.35;12.50;;;;;;;-144.30;47.79;83309.72;5033399;28;20275;-53
2023/07/25 04:19:17;;;;;;;16.48;12.93;;;;;;;-144.30;46.36;83162.72;5033338;28;20200;-53
2023/07/25 04:21:44;;;;;;;17.08;12.88;;;;;;;-144.30;45.71;83049.47;5033022;28;20243;-46
2023/07/25 04:24:11;;;;;;;21.52;12.32;;;;;;;-144.30;44.49;82968.03;5032973;28;20221;-46
2023/07/25 04:26:38;;;;;;;16.73;12.75;;;;;;;-144.30;43.77;82888.56;5032854;28;20587;-54
2023/07/25 04:29:05;;;;;;;19.00;12.02;;;;;;;-144.30;43.14;82789.25;5032129;28;20684;-55
2023/07/25 04:31:32;;;;;;;11.93;10.75;;;;;;;-144.30;42.93;82741.56;5032204;28;20576;-49
2023/07/25 04:34:00;;;;;;;11.63;10.43;;;;;;;-144.30;41.88;82733.63;5033071;28;20193;-53
2023/07/25 04:36:28;;;;;;;13.82;10.05;;;;;;;-144.30;40.99;82503.22;5032356;28;20584;-46
2023/07/25 04:38:56;;;;;;;12.30;10.23;;;;;;;-144.30;40.50;82459.50;5032319;28;20205;-47
2023/07/25 04:41:23;;;;;;;13.95;9.68;;;;;;;-144.30;40.31;82455.53;5032520;28;20226;-46
2023/07/25 04:43:50;;;;;;;13.98;10.07;;;;;;;-144.30;39.68;82310.53;5032539;28;20225;-47
2023/07/25 04:46:17;;;;;;;15.40;9.82;;;;;;;-144.30;39.06;82161.59;5032067;28;20239;-54
2023/07/25 04:48:43;;;;;;;22.55;10.30;;;;;;;-144.30;38.54;82123.84;5032582;28;20696;-53
2023/07/25 04:51:12;;;;;;;13.38;9.07;;;;;;;-144.30;37.90;82040.44;5032573;28;20197;-53
2023/07/25 04:53:39;;;;;;;12.52;9.13;;;;;;;-144.30;37.31;81959.00;5032399;28;20219;-47
2023/07/25 04:56:06;;;;;;;10.32;9.23;;;;;;;-144.30;37.28;81935.19;5032550;28;20575;-48
2023/07/25 04:58:32;;;;;;;13.05;9.90;;;;;;;-144.30;37.25;82010.66;5032221;28;20208;-54
2023/07/25 05:00:59;;;;;;;8.88;8.07;;;;;;;-144.30;37.06;81814.03;5032363;28;20295;-49
2023/07/25 05:03:26;;;;;;;12.48;8.55;;;;;;;-144.30;36.85;81730.63;5030531;28;20235;-48
2023/07/25 05:05:56;;;;;;;15.18;9.18;;;;;;;-144.30;36.80;81716.72;5032262;28;20202;-47
2023/07/25 05:08:24;;;;;;;10.75;8.75;;;;;;;-144.30;36.66;81694.88;5031998;28;20296;-53
2023/07/25 05:10:52;;;;;;;9.38;8.10;;;;;;;-144.30;37.27;81921.28;5032382;28;20201;-46
2023/07/25 05:13:19;;;;;;;16.20;10.15;;;;;;;-144.30;36.92;81792.19;5032115;28;20219;-48
2023/07/25 05:15:46;;;;;;;13.27;9.43;;;;;;;-144.30;36.33;81611.47;5031919;28;20193;-47
2023/07/25 05:18:13;;;;;;;18.40;9.55;;;;;;;-144.30;35.50;81522.13;5032049;28;20193;-47
2023/07/25 05:20:40;;;;;;;13.13;10.18;;;;;;;-144.30;34.97;81426.81;5032086;28;20201;-47
2023/07/25 05:23:07;;;;;;;14.10;10.73;;;;;;;-144.30;35.22;81412.91;5031976;28;20694;-48
2023/07/25 05:25:35;;;;;;;17.20;10.88;;;;;;;-144.30;34.43;81220.31;5031796;28;20200;-48
2023/07/25 05:28:02;;;;;;;15.52;10.07;;;;;;;-144.30;34.40;81226.28;5031900;28;20201;-48
2023/07/25 05:30:29;;;;;;;16.63;9.98;;;;;;;-144.30;34.15;81140.91;5031956;28;20197;-47
2023/07/25 05:32:56;;;;;;;15.50;10.05;;;;;;;-144.30;34.06;81075.38;5031869;28;20204;-47
2023/07/25 05:35:22;;;;;;;24.25;9.57;;;;;;;-144.30;34.04;81073.38;5032158;28;20196;-47
2023/07/25 05:37:49;;;;;;;10.70;8.98;;;;;;;-144.30;34.54;81180.59;5031495;28;20203;-53
2023/07/25 05:40:16;;;;;;;13.75;9.63;;;;;;;-144.30;34.37;81136.91;5031722;28;20583;-47
2023/07/25 05:42:45;;;;;;;14.50;10.48;;;;;;;-144.30;34.31;81150.81;5031581;28;20650;-53
2023/07/25 05:45:11;;;;;;;19.30;10.82;;;;;;;-144.30;34.20;81111.13;5031536;28;20225;-54
2023/07/25 05:47:38;;;;;;;12.80;10.65;;;;;;;-144.30;33.69;81011.84;5031403;28;20203;-54
2023/07/25 05:50:07;;;;;;;11.02;9.77;;;;;;;-144.30;33.45;80916.53;5031117;28;20602;-54
2023/07/25 05:52:34;;;;;;;11.65;9.13;;;;;;;-144.30;33.86;81065.44;5031320;28;20224;-53
2023/07/25 05:55:01;;;;;;;15.95;10.02;;;;;;;-144.30;33.79;80958.22;5031605;28;20715;-47
2023/07/25 05:57:28;;;;;;;9.35;8.20;;;;;;;-144.30;34.04;81091.25;5031358;28;20589;-52
2023/07/25 05:59:56;;;;;;;16.65;7.70;;;;;;;-144.30;34.21;81057.50;5031171;28;20668;-47
2023/07/25 06:02:23;;;;;;;10.80;8.43;;;;;;;-144.30;34.24;81125.00;5031150;28;20197;-47
2023/07/25 06:04:50;;;;;;;11.75;7.70;;;;;;;-144.30;34.46;81180.59;5030961;28;20256;-54
2023/07/25 06:07:17;;;;;;;9.40;8.52;;;;;;;-144.30;34.63;81184.56;5031058;28;20204;-47
2023/07/25 06:09:44;;;;;;;13.77;7.90;;;;;;;-144.30;35.10;81267.97;5031083;28;20200;-53
2023/07/25 06:12:11;;;;;;;11.77;8.57;;;;;;;-144.30;36.41;81510.22;5031018;28;20197;-52
2023/07/25 06:14:38;;;;;;;14.45;8.57;;;;;;;-144.30;35.28;81289.81;5029878;28;20301;-47
2023/07/25 06:17:06;;;;;;;20.00;9.00;;;;;;;-144.30;35.32;81216.34;5029614;28;20205;-53
2023/07/25 06:19:33;;;;;;;21.35;8.88;;;;;;;-144.30;35.07;81234.22;5030839;28;20228;-53
2023/07/25 06:22:00;;;;;;;12.52;8.68;;;;;;;-144.30;35.23;81240.16;5030620;28;20207;-54
2023/07/25 06:24:27;;;;;;;17.85;8.68;;;;;;;-144.30;34.99;81307.69;5030318;28;20220;-47
2023/07/25 06:26:54;;;;;;;9.25;8.00;;;;;;;-144.30;35.10;81220.31;5030589;28;20630;-52
2023/07/25 06:29:21;;;;;;;12.63;7.97;;;;;;;-144.30;34.85;81232.22;5030663;28;20204;-53
2023/07/25 06:31:48;;;;;;;10.95;7.70;;;;;;;-144.30;35.23;81212.38;5029625;28;20219;-48
2023/07/25 06:34:16;;;;;;;10.73;8.25;;;;;;;-144.30;34.86;81264.00;5011290;28;20577;-54
2023/07/25 06:36:43;;;;;;;15.60;8.32;;;;;;;-144.30;35.22;81224.28;5010648;28;20198;-47
2023/07/25 06:39:10;;;;;;;11.65;7.70;;;;;;;-144.30;34.85;81216.34;5010620;28;20199;-53
2023/07/25 06:41:37;;;;;;;8.63;7.78;;;;;;;-144.30;34.98;81216.34;5010554;28;20209;-48
2023/07/25 06:44:04;;;;;;;11.77;8.43;;;;;;;-144.30;34.62;81240.16;5010730;28;20236;-54
2023/07/25 06:46:30;;;;;;;8.93;7.80;;;;;;;-144.30;35.23;81335.47;5010290;28;20197;-47
2023/07/25 06:48:57;;;;;;;12.88;8.40;;;;;;;-144.30;34.87;81337.47;5010450;28;20198;-47
2023/07/25 06:51:26;;;;;;;13.77;8.68;;;;;;;-144.30;34.77;81242.16;5010412;28;20198;-47
2023/07/25 06:53:53;;;;;;;16.67;8.57;;;;;;;-144.30;35.55;81494.31;5010629;28;20340;-49
2023/07/25 06:56:20;;;;;;;9.88;8.90;;;;;;;-144.30;35.54;81424.81;5010492;28;20229;-53
2023/07/25 06:58:47;;;;;;;13.18;9.48;;;;;;;-144.30;35.82;81551.91;5010229;28;20585;-53
2023/07/25 07:01:13;;;;;;;9.68;8.77;;;;;;;-144.30;35.80;81561.84;5021306;28;20200;-47
2023/07/25 07:03:40;;;;;;;10.90;9.98;;;;;;;-144.30;35.68;81508.22;5022669;28;20635;-53
2023/07/25 07:06:07;;;;;;;13.73;9.57;;;;;;;-144.30;35.66;81540.00;5020271;28;20212;-47
2023/07/25 07:08:35;;;;;;;10.93;9.32;;;;;;;-144.30;35.32;81418.88;5018064;28;20200;-46
2023/07/25 07:11:02;;;;;;;15.82;10.52;;;;;;;-144.30;34.79;81416.88;5019479;28;20673;-48
2023/07/25 07:13:29;;;;;;;14.73;9.90;;;;;;;-144.30;34.49;81327.53;5026301;28;20597;-55
2023/07/25 07:15:57;;;;;;;13.05;9.30;;;;;;;-144.30;34.10;81252.09;5029926;28;20189;-47
2023/07/25 07:18:24;;;;;;;11.02;9.95;;;;;;;-144.30;33.57;81107.13;5029680;28;20212;-48
2023/07/25 07:20:51;;;;;;;13.18;9.30;;;;;;;-144.30;33.29;81164.72;5029848;28;20208;-47
2023/07/25 07:23:18;;;;;;;14.20;9.77;;;;;;;-144.30;34.22;81339.44;5030113;28;20203;-53
2023/07/25 07:25:46;;;;;;;15.35;10.50;;;;;;;-144.30;35.00;81577.72;5029449;28;20316;-48
2023/07/25 07:28:14;;;;;;;10.82;9.57;;;;;;;-144.30;34.92;81551.91;5029586;28;20201;-47
2023/07/25 07:30:41;;;;;;;14.07;10.02;;;;;;;-144.30;34.06;81426.81;5029490;28;20195;-47
2023/07/25 07:33:08;;;;;;;18.90;9.85;;;;;;;-144.30;32.85;81210.38;5029856;28;20764;-47
2023/07/25 07:35:35;;;;;;;12.75;10.25;;;;;;;-144.30;32.32;81152.81;5029693;28;20645;-48
2023/07/25 07:38:02;;;;;;;12.32;10.13;;;;;;;-144.30;31.84;81125.00;5029781;28;20569;-47
2023/07/25 07:40:29;;;;;;;13.43;9.75;;;;;;;-144.30;31.73;81017.78;5029512;28;20558;-48
2023/07/25 07:42:57;;;;;;;12.23;10.98;;;;;;;-144.30;31.66;81023.75;5029635;28;20204;-47
2023/07/25 07:45:25;;;;;;;16.88;10.73;;;;;;;-144.30;31.42;80938.38;5029496;28;20704;-47
2023/07/25 07:47:52;;;;;;;12.88;10.30;;;;;;;-144.30;31.13;80841.09;5029693;28;20564;-47
2023/07/25 07:50:19;;;;;;;13.32;10.30;;;;;;;-144.30;31.06;80710.06;5029745;28;20251;-48
2023/07/25 07:52:46;;;;;;;14.68;10.65;;;;;;;-144.30;31.34;80922.50;5029515;28;20193;-48
2023/07/25 07:55:14;;;;;;;15.38;10.48;;;;;;;-144.30;31.76;81059.50;5029193;28;20188;-46
2023/07/25 07:57:43;;;;;;;13.48;10.30;;;;;;;-144.30;31.33;80858.97;5029577;28;20197;-54
2023/07/25 08:00:14;;;;;;;20.20;11.57;;;;;;;-144.30;31.28;80926.47;5029399;28;20665;-46
2023/07/25 08:02:41;;;;;;;11.40;10.25;;;;;;;-144.30;30.86;80787.50;5029257;28;20204;-47
2023/07/25 08:05:09;;;;;;;15.68;10.82;;;;;;;-144.30;31.70;80880.81;5029383;28;20704;-53
2023/07/25 08:07:36;;;;;;;21.75;11.07;;;;;;;-144.30;30.79;80759.69;5028960;28;20587;-46
2023/07/25 08:10:04;;;;;;;13.00;10.55;;;;;;;-144.30;31.06;80801.41;5029029;28;20197;-53
2023/07/25 08:12:31;;;;;;;15.55;11.50;;;;;;;-144.30;30.94;80721.97;5029026;28;20197;-53
2023/07/25 08:14:58;;;;;;;11.77;10.40;;;;;;;-144.30;30.86;80662.44;5029116;28;20197;-53
2023/07/25 08:17:26;;;;;;;10.88;9.85;;;;;;;-144.30;29.91;80652.50;5029079;28;20197;-54
2023/07/25 08:19:53;;;;;;;16.27;10.40;;;;;;;-144.30;29.84;80505.59;5029188;28;20205;-53
2023/07/25 08:22:20;;;;;;;20.75;11.30;;;;;;;-144.30;29.44;80251.50;5029249;28;20699;-53
2023/07/25 08:24:48;;;;;;;14.60;10.75;;;;;;;-144.30;29.16;80058.97;5029068;28;20244;-52
2023/07/25 08:27:15;;;;;;;20.63;10.82;;;;;;;-144.30;28.94;80031.19;5029161;28;20204;-48
2023/07/25 08:29:43;;;;;;;30.35;11.10;;;;;;;-144.30;28.84;80033.16;5028961;28;20276;-48
2023/07/25 08:32:10;;;;;;;17.80;10.63;;;;;;;-144.30;28.94;80120.50;5029174;28;20208;-47
2023/07/25 08:34:39;;;;;;;12.57;10.18;;;;;;;-144.30;29.88;80287.25;5028863;28;20192;-48
2023/07/25 08:37:07;;;;;;;12.20;9.80;;;;;;;-144.30;29.88;80330.91;5029494;28;20189;-53
2023/07/25 08:39:34;;;;;;;14.55;9.80;;;;;;;-144.30;30.20;80465.91;5032599;28;20267;-53
2023/07/25 08:42:06;;;;;;;11.07;9.93;;;;;;;-144.30;30.59;80583.00;5032691;28;20193;-53
2023/07/25 08:44:35;;;;;;;10.82;9.73;;;;;;;-144.30;30.80;80636.63;5032833;28;20220;-53
2023/07/25 08:47:09;;;;;;;14.18;9.95;;;;;;;-144.30;31.26;80710.06;5032598;28;20850;-46
2023/07/25 08:49:41;;;;;;;16.55;10.00;;;;;;;-144.30;32.92;81005.88;5032302;28;20204;-53
2023/07/25 08:52:09;;;;;;;11.23;10.10;;;;;;;-144.30;32.56;80962.19;5032530;28;20212;-47
2023/07/25 08:54:37;;;;;;;11.43;10.32;;;;;;;-144.30;32.76;80914.56;5032261;28;20250;-53
2023/07/25 08:57:05;;;;;;;11.68;10.40;;;;;;;-144.30;32.67;80839.13;5032174;28;20197;-47
2023/07/25 08:59:32;;;;;;;14.68;10.18;;;;;;;-144.30;32.90;80922.50;5032463;28;20573;-47
2023/07/25 09:02:00;;;;;;;13.07;10.57;;;;;;;-144.30;32.74;80853.00;5032208;28;20236;-53
2023/07/25 09:04:28;;;;;;;15.88;10.18;;;;;;;-144.30;32.09;80827.19;5031764;28;20243;-53
2023/07/25 09:06:56;;;;;;;13.63;9.60;;;;;;;-144.30;31.98;80791.47;5032403;28;20197;-53
2023/07/25 09:09:24;;;;;;;12.35;10.40;;;;;;;-144.30;31.50;80799.41;5032473;28;20205;-53
2023/07/25 09:11:51;;;;;;;11.18;10.02;;;;;;;-144.30;31.90;80855.00;5032201;28;20201;-48
2023/07/25 09:14:18;;;;;;;11.82;10.27;;;;;;;-144.30;32.34;80886.75;5032604;28;20577;-53
2023/07/25 09:16:45;;;;;;;15.50;10.02;;;;;;;-144.30;32.41;80918.53;5032042;28;20184;-48
2023/07/25 09:19:12;;;;;;;16.27;10.13;;;;;;;-144.30;32.69;80866.91;5031960;28;20203;-48
2023/07/25 09:21:47;;;;;;;13.40;9.52;;;;;;;-144.30;32.11;80878.81;5031796;28;20211;-48
2023/07/25 09:24:16;;;;;;;16.50;10.40;;;;;;;-144.30;32.22;80908.59;5031841;28;20200;-49
2023/07/25 09:26:49;;;;;;;12.60;9.80;;;;;;;-144.30;32.47;80958.22;5031738;28;20207;-52
2023/07/25 09:29:17;;;;;;;11.38;9.73;;;;;;;-144.30;32.56;81021.75;5031882;28;20196;-53
2023/07/25 09:31:46;;;;;;;12.98;10.35;;;;;;;-144.30;33.09;81049.56;5031841;28;20278;-54
2023/07/25 09:34:17;;;;;;;11.95;10.38;;;;;;;-144.30;32.74;81067.44;5031694;28;20239;-48
2023/07/25 09:36:47;;;;;;;11.68;10.65;;;;;;;-144.30;32.66;81105.16;5031485;28;20201;-53
2023/07/25 09:39:16;;;;;;;15.52;10.60;;;;;;;-144.30;32.46;81019.78;5031438;28;20251;-48
2023/07/25 09:41:45;;;;;;;13.00;10.10;;;;;;;-144.30;32.45;81170.69;5031370;28;20203;-47
2023/07/25 09:44:12;;;;;;;13.35;10.20;;;;;;;-144.30;33.45;81287.81;5031645;28;20680;-45
2023/07/25 09:46:39;;;;;;;14.38;10.93;;;;;;;-144.30;34.41;81420.84;5031249;28;20221;-47
2023/07/25 09:49:06;;;;;;;12.55;10.98;;;;;;;-144.30;34.30;81450.66;5031191;28;20287;-48
2023/07/25 09:51:33;;;;;;;12.95;9.85;;;;;;;-144.30;33.66;81331.50;5031231;28;20209;-48
2023/07/25 09:54:05;;;;;;;12.95;10.25;;;;;;;-144.30;34.23;81275.91;5031212;28;20197;-48
2023/07/25 09:56:34;;;;;;;15.80;10.73;;;;;;;-144.30;32.56;81252.09;5031330;28;20201;-46
2023/07/25 09:59:01;;;;;;;18.50;10.98;;;;;;;-144.30;32.15;81289.81;5031355;28;20201;-54
2023/07/25 10:01:29;;;;;;;15.40;11.57;;;;;;;-144.30;32.00;81353.34;5031172;28;20624;-47
2023/07/25 10:03:56;;;;;;;19.98;11.70;;;;;;;-144.30;32.55;81448.66;5031085;28;20225;-48
2023/07/25 10:06:24;;;;;;;13.85;11.35;;;;;;;-144.30;33.20;81448.66;5028445;28;20548;-48
2023/07/25 10:08:52;;;;;;;18.48;11.15;;;;;;;-144.30;33.24;81486.38;5022465;28;20213;-47
2023/07/25 10:11:21;;;;;;;25.17;12.05;;;;;;;-144.30;32.85;81557.88;5020993;28;20197;-49
2023/07/25 10:13:52;;;;;;;44.88;40.05;;;;;;;-144.30;33.38;81585.66;5025798;28;20683;-48
2023/07/25 10:16:20;;;;;;;54.15;48.42;;;;;;;-144.30;33.48;81522.13;5021627;28;20233;-48
2023/07/25 10:18:54;;;;;;;19.88;12.95;;;;;;;-144.30;33.25;81522.13;5022688;28;20260;-48
2023/07/25 10:21:26;;;;;;;14.18;11.55;;;;;;;-144.30;33.39;81442.69;5029873;28;20208;-48
2023/07/25 10:23:58;;;;;;;20.30;12.35;;;;;;;-144.30;33.12;81315.63;5030848;28;20745;-49
2023/07/25 10:26:26;;;;;;;17.90;12.68;;;;;;;-144.30;33.10;81319.59;5030919;28;20718;-53
2023/07/25 10:28:54;;;;;;;18.55;11.18;;;;;;;-144.30;33.31;81371.22;5030957;28;20673;-47
2023/07/25 10:31:23;;;;;;;16.48;12.60;;;;;;;-144.30;33.04;81377.16;5030455;28;20205;-49
2023/07/25 10:33:54;;;;;;;18.90;11.80;;;;;;;-144.30;33.31;81347.38;5030550;28;20254;-54
2023/07/25 10:36:23;;;;;;;14.82;11.07;;;;;;;-144.30;33.25;81377.16;5030607;28;20638;-48
2023/07/25 10:38:52;;;;;;;22.35;12.32;;;;;;;-144.30;33.58;81476.47;5030750;28;20201;-45
2023/07/25 10:41:20;;;;;;;15.82;11.70;;;;;;;-144.30;33.70;81478.44;5030584;28;20837;-48
2023/07/25 10:44:00;;;;;;;17.23;11.30;;;;;;;-144.30;33.59;81446.66;5030277;28;20201;-53
2023/07/25 10:46:29;;;;;;;19.77;11.65;;;;;;;-144.30;33.55;81514.19;5030433;28;20307;-47
2023/07/25 10:48:59;;;;;;;22.90;11.85;;;;;;;-144.30;33.96;81635.31;5030388;28;20203;-47
2023/07/25 10:51:46;;;;;;;16.52;11.70;;;;;;;-144.30;33.82;81641.28;5030082;28;20208;-47
2023/07/25 10:54:13;;;;;;;17.35;11.70;;;;;;;-144.30;33.99;81547.94;5030357;28;20216;-48
2023/07/25 10:56:40;;;;;;;14.52;11.20;;;;;;;-144.30;33.66;81518.16;5029949;28;20189;-54
2023/07/25 10:59:10;;;;;;;16.85;11.40;;;;;;;-144.30;33.79;81581.69;5029969;28;20207;-54
2023/07/25 11:01:43;;;;;;;14.70;11.35;;;;;;;-144.30;34.03;81508.22;5029525;28;20202;-53
2023/07/25 11:04:27;;;;;;;16.73;11.88;;;;;;;-144.30;34.12;81530.06;5030090;28;20803;-48
2023/07/25 11:06:56;;;;;;;16.92;12.02;;;;;;;-144.30;34.12;81611.47;5029846;28;20220;-46